createdAt,value
2019-02-22T00:00:07.556Z,13.60
2019-02-22T00:01:16.052Z,13.60
2019-02-22T00:02:18.956Z,13.50
2019-02-22T00:03:19.967Z,13.50
2019-02-22T00:04:21.018Z,13.50
2019-02-22T00:05:22.040Z,13.50
2019-02-22T00:06:23.061Z,13.50
2019-02-22T00:07:24.077Z,13.60
2019-02-22T00:08:25.196Z,13.60
2019-02-22T00:09:26.220Z,13.60
2019-02-22T00:10:27.232Z,13.60
2019-02-22T00:11:28.261Z,13.60
2019-02-22T00:12:29.285Z,13.60
2019-02-22T00:13:30.298Z,13.60
2019-02-22T00:14:31.384Z,13.60
2019-02-22T00:15:32.397Z,13.60
2019-02-22T00:16:33.417Z,13.50
2019-02-22T00:17:34.433Z,13.50
2019-02-22T00:18:35.444Z,13.50
2019-02-22T00:19:36.460Z,13.50
2019-02-22T00:20:37.480Z,13.50
2019-02-22T00:21:38.494Z,13.50
2019-02-22T00:22:39.652Z,13.50
2019-02-22T00:23:40.716Z,13.50
2019-02-22T00:24:41.760Z,13.50
2019-02-22T00:25:42.793Z,13.40
2019-02-22T00:26:43.894Z,13.40
2019-02-22T00:27:44.919Z,13.40
2019-02-22T00:28:45.964Z,13.50
2019-02-22T00:29:46.992Z,13.40
2019-02-22T00:30:48.007Z,13.40
2019-02-22T00:31:49.019Z,13.40
2019-02-22T00:32:50.039Z,13.40
2019-02-22T00:33:51.053Z,13.40
2019-02-22T00:34:52.135Z,13.40
2019-02-22T00:35:53.215Z,13.40
2019-02-22T00:36:54.432Z,13.40
2019-02-22T00:37:55.865Z,13.40
2019-02-22T00:38:56.880Z,13.40
2019-02-22T00:39:57.900Z,13.40
2019-02-22T00:40:58.920Z,13.30
2019-02-22T00:41:59.933Z,13.30
2019-02-22T00:43:00.949Z,13.30
2019-02-22T00:44:01.970Z,13.30
2019-02-22T00:45:03.086Z,13.30
2019-02-22T00:46:04.125Z,13.30
2019-02-22T00:47:05.140Z,13.30
2019-02-22T00:48:06.167Z,13.30
2019-02-22T00:49:07.181Z,13.30
2019-02-22T00:50:08.304Z,13.30
2019-02-22T00:51:09.317Z,13.30
2019-02-22T00:52:10.328Z,13.30
2019-02-22T00:53:11.353Z,13.30
2019-02-22T00:54:12.368Z,13.20
2019-02-22T00:55:13.380Z,13.20
2019-02-22T00:56:14.409Z,13.20
2019-02-22T00:57:15.435Z,13.20
2019-02-22T00:58:16.515Z,13.20
2019-02-22T00:59:17.528Z,13.20
2019-02-22T01:00:18.553Z,13.20
2019-02-22T01:01:19.571Z,13.10
2019-02-22T01:02:20.584Z,13.10
2019-02-22T01:03:21.600Z,13.10
2019-02-22T01:04:22.608Z,13.00
2019-02-22T01:05:23.635Z,13.00
2019-02-22T01:06:24.653Z,13.00
2019-02-22T01:07:25.673Z,13.00
2019-02-22T01:08:26.684Z,13.00
2019-02-22T01:09:27.708Z,13.00
2019-02-22T01:10:31.508Z,13.00
2019-02-22T01:11:32.050Z,13.00
2019-02-22T01:12:33.074Z,13.00
2019-02-22T01:13:34.420Z,13.00
2019-02-22T01:14:35.415Z,13.10
2019-02-22T01:15:36.450Z,13.00
2019-02-22T01:16:37.481Z,13.00
2019-02-22T01:17:38.572Z,13.00
2019-02-22T01:18:39.625Z,13.10
2019-02-22T01:19:40.640Z,13.10
2019-02-22T01:20:41.675Z,13.10
2019-02-22T01:21:42.701Z,13.10
2019-02-22T01:22:43.713Z,13.10
2019-02-22T01:23:44.756Z,13.10
2019-02-22T01:24:45.773Z,13.10
2019-02-22T01:25:46.895Z,13.10
2019-02-22T01:26:47.952Z,13.20
2019-02-22T01:27:49.043Z,13.20
2019-02-22T01:28:50.068Z,13.20
2019-02-22T01:29:51.083Z,13.20
2019-02-22T01:30:52.109Z,13.20
2019-02-22T01:31:53.129Z,13.20
2019-02-22T01:32:54.140Z,13.20
2019-02-22T01:33:55.174Z,13.20
2019-02-22T01:34:56.244Z,13.20
2019-02-22T01:35:57.300Z,13.10
2019-02-22T01:36:58.308Z,13.10
2019-02-22T01:37:59.340Z,13.10
2019-02-22T01:39:00.353Z,13.10
2019-02-22T01:40:01.719Z,13.10
2019-02-22T01:41:02.774Z,13.10
2019-02-22T01:42:03.784Z,13.10
2019-02-22T01:43:04.806Z,13.10
2019-02-22T01:44:17.449Z,13.20
2019-02-22T01:45:18.457Z,13.10
2019-02-22T01:46:19.478Z,13.20
2019-02-22T01:47:20.493Z,13.10
2019-02-22T01:48:21.520Z,13.20
2019-02-22T01:49:22.533Z,13.10
2019-02-22T01:50:23.540Z,13.20
2019-02-22T01:51:24.636Z,13.20
2019-02-22T01:52:25.674Z,13.10
2019-02-22T01:53:26.694Z,13.10
2019-02-22T01:54:27.704Z,13.10
2019-02-22T01:55:28.727Z,13.10
2019-02-22T01:56:29.776Z,13.10
2019-02-22T01:57:30.791Z,13.10
2019-02-22T01:58:31.812Z,13.10
2019-02-22T01:59:32.899Z,13.10
2019-02-22T02:00:33.904Z,13.10
2019-02-22T02:01:34.936Z,13.10
2019-02-22T02:02:35.947Z,13.10
2019-02-22T02:03:36.968Z,13.10
2019-02-22T02:04:37.990Z,13.10
2019-02-22T02:05:39.000Z,13.10
2019-02-22T02:06:40.132Z,13.10
2019-02-22T02:07:41.149Z,13.10
2019-02-22T02:08:42.213Z,13.10
2019-02-22T02:09:43.228Z,13.00
2019-02-22T02:10:53.851Z,13.10
2019-02-22T02:11:47.194Z,13.10
2019-02-22T02:12:48.239Z,13.10
2019-02-22T02:13:49.244Z,13.10
2019-02-22T02:14:50.276Z,13.10
2019-02-22T02:15:51.390Z,13.10
2019-02-22T02:16:52.419Z,13.10
2019-02-22T02:17:53.439Z,13.10
2019-02-22T02:18:54.464Z,13.10
2019-02-22T02:19:55.496Z,13.10
2019-02-22T02:20:56.569Z,13.00
2019-02-22T02:21:57.700Z,13.10
2019-02-22T02:22:58.722Z,13.00
2019-02-22T02:23:59.726Z,13.00
2019-02-22T02:25:00.776Z,13.00
2019-02-22T02:26:01.800Z,13.00
2019-02-22T02:27:02.819Z,13.00
2019-02-22T02:28:03.928Z,12.90
2019-02-22T02:29:04.945Z,12.90
2019-02-22T02:30:08.276Z,12.90
2019-02-22T02:31:09.418Z,12.90
2019-02-22T02:32:10.487Z,12.90
2019-02-22T02:33:11.515Z,12.90
2019-02-22T02:34:12.531Z,12.90
2019-02-22T02:35:13.557Z,13.00
2019-02-22T02:36:14.577Z,13.00
2019-02-22T02:37:15.597Z,13.00
2019-02-22T02:38:16.616Z,13.00
2019-02-22T02:39:17.631Z,13.00
2019-02-22T02:40:18.644Z,13.00
2019-02-22T02:41:19.670Z,13.10
2019-02-22T02:42:20.679Z,13.10
2019-02-22T02:43:21.684Z,13.10
2019-02-22T02:44:22.704Z,13.10
2019-02-22T02:45:23.726Z,13.10
2019-02-22T02:46:24.750Z,13.10
2019-02-22T02:47:25.774Z,13.20
2019-02-22T02:48:26.787Z,13.20
2019-02-22T02:49:27.891Z,13.30
2019-02-22T02:50:28.900Z,13.30
2019-02-22T02:51:30.206Z,13.30
2019-02-22T02:52:31.211Z,13.30
2019-02-22T02:53:32.223Z,13.30
2019-02-22T02:54:33.249Z,13.40
2019-02-22T02:55:34.292Z,13.40
2019-02-22T02:56:35.331Z,13.40
2019-02-22T02:57:36.341Z,13.40
2019-02-22T02:58:37.481Z,13.40
2019-02-22T02:59:38.568Z,13.30
2019-02-22T03:00:39.862Z,13.30
2019-02-22T03:01:40.976Z,13.30
2019-02-22T03:02:41.989Z,13.30
2019-02-22T03:03:43.014Z,13.30
2019-02-22T03:04:44.028Z,13.30
2019-02-22T03:05:49.702Z,13.30
2019-02-22T03:06:58.637Z,13.30
2019-02-22T03:08:00.752Z,13.30
2019-02-22T03:09:02.780Z,13.30
2019-02-22T03:10:05.395Z,13.20
2019-02-22T03:11:06.420Z,13.20
2019-02-22T03:12:07.450Z,13.20
2019-02-22T03:13:08.466Z,13.20
2019-02-22T03:14:09.484Z,13.20
2019-02-22T03:15:12.618Z,13.20
2019-02-22T03:16:13.625Z,13.20
2019-02-22T03:17:14.652Z,13.10
2019-02-22T03:18:15.670Z,13.20
2019-02-22T03:19:16.688Z,13.20
2019-02-22T03:20:17.700Z,13.20
2019-02-22T03:21:18.718Z,13.20
2019-02-22T03:22:19.747Z,13.10
2019-02-22T03:23:21.039Z,13.20
2019-02-22T03:24:22.053Z,13.20
2019-02-22T03:25:23.074Z,13.20
2019-02-22T03:26:24.085Z,13.20
2019-02-22T03:27:25.151Z,13.20
2019-02-22T03:28:26.240Z,13.20
2019-02-22T03:29:27.249Z,13.20
2019-02-22T03:30:28.261Z,13.20
2019-02-22T03:31:29.434Z,13.20
2019-02-22T03:32:30.650Z,13.20
2019-02-22T03:33:31.800Z,13.20
2019-02-22T03:34:32.901Z,13.20
2019-02-22T03:35:33.913Z,13.20
2019-02-22T03:36:34.942Z,13.20
2019-02-22T03:37:36.016Z,13.20
2019-02-22T03:38:37.022Z,13.20
2019-02-22T03:39:38.043Z,13.20
2019-02-22T03:40:39.058Z,13.20
2019-02-22T03:41:40.075Z,13.20
2019-02-22T03:42:41.182Z,13.20
2019-02-22T03:43:42.201Z,13.20
2019-02-22T03:44:43.213Z,13.20
2019-02-22T03:45:44.222Z,13.20
2019-02-22T03:46:45.231Z,13.20
2019-02-22T03:47:46.264Z,13.20
2019-02-22T03:48:47.286Z,13.10
2019-02-22T03:49:48.293Z,13.10
2019-02-22T03:50:49.318Z,13.20
2019-02-22T03:51:50.348Z,13.20
2019-02-22T03:52:53.264Z,13.10
2019-02-22T03:53:57.274Z,13.10
2019-02-22T03:54:57.423Z,13.10
2019-02-22T03:55:58.440Z,13.00
2019-02-22T03:56:59.461Z,13.00
2019-02-22T03:58:00.788Z,13.00
2019-02-22T03:59:02.014Z,13.00
2019-02-22T04:00:08.501Z,13.00
2019-02-22T04:01:09.513Z,12.90
2019-02-22T04:02:10.624Z,12.90
2019-02-22T04:03:11.657Z,12.90
2019-02-22T04:04:12.672Z,12.90
2019-02-22T04:05:13.689Z,12.90
2019-02-22T04:06:14.700Z,12.80
2019-02-22T04:07:15.839Z,12.80
2019-02-22T04:08:16.866Z,12.80
2019-02-22T04:09:17.889Z,12.80
2019-02-22T04:10:18.902Z,12.80
2019-02-22T04:11:19.937Z,12.80
2019-02-22T04:12:20.949Z,12.80
2019-02-22T04:13:21.992Z,12.80
2019-02-22T04:14:23.062Z,12.80
2019-02-22T04:15:24.893Z,12.80
2019-02-22T04:16:26.093Z,12.70
2019-02-22T04:17:27.109Z,12.80
2019-02-22T04:18:28.140Z,12.80
2019-02-22T04:19:29.175Z,12.80
2019-02-22T04:20:30.193Z,12.70
2019-02-22T04:21:31.219Z,12.70
2019-02-22T04:22:32.217Z,12.70
2019-02-22T04:23:33.229Z,12.70
2019-02-22T04:24:34.243Z,12.70
2019-02-22T04:25:35.255Z,12.70
2019-02-22T04:26:36.295Z,12.70
2019-02-22T04:27:37.313Z,12.70
2019-02-22T04:28:38.366Z,12.60
2019-02-22T04:29:39.380Z,12.60
2019-02-22T04:30:40.396Z,12.50
2019-02-22T04:31:41.414Z,12.50
2019-02-22T04:32:42.434Z,12.50
2019-02-22T04:33:43.458Z,12.50
2019-02-22T04:34:44.738Z,12.40
2019-02-22T04:35:45.745Z,12.40
2019-02-22T04:36:46.770Z,12.40
2019-02-22T04:37:47.795Z,12.40
2019-02-22T04:38:48.814Z,12.40
2019-02-22T04:39:49.830Z,12.50
2019-02-22T04:40:50.861Z,12.50
2019-02-22T04:41:58.086Z,12.50
2019-02-22T04:42:54.820Z,12.60
2019-02-22T04:43:55.924Z,12.50
2019-02-22T04:44:56.946Z,12.50
2019-02-22T04:45:57.968Z,12.50
2019-02-22T04:46:58.984Z,12.50
2019-02-22T04:48:00.009Z,12.50
2019-02-22T04:49:01.033Z,12.50
2019-02-22T04:50:02.250Z,12.50
2019-02-22T04:51:03.265Z,12.60
2019-02-22T04:52:04.283Z,12.60
2019-02-22T04:53:05.308Z,12.60
2019-02-22T04:54:06.325Z,12.60
2019-02-22T04:55:07.550Z,12.60
2019-02-22T04:56:08.573Z,12.60
2019-02-22T04:57:09.607Z,12.50
2019-02-22T04:58:10.720Z,12.50
2019-02-22T04:59:11.744Z,12.50
2019-02-22T05:00:13.091Z,12.50
2019-02-22T05:01:14.105Z,12.50
2019-02-22T05:02:15.339Z,12.50
2019-02-22T05:03:16.360Z,12.50
2019-02-22T05:04:17.480Z,12.50
2019-02-22T05:05:18.494Z,12.50
2019-02-22T05:06:19.506Z,12.50
2019-02-22T05:07:20.524Z,12.50
2019-02-22T05:08:21.554Z,12.50
2019-02-22T05:09:22.581Z,12.60
2019-02-22T05:10:23.596Z,12.50
2019-02-22T05:11:24.616Z,12.50
2019-02-22T05:12:25.635Z,12.50
2019-02-22T05:13:26.668Z,12.50
2019-02-22T05:14:27.695Z,12.40
2019-02-22T05:15:28.736Z,12.50
2019-02-22T05:16:29.818Z,12.40
2019-02-22T05:17:30.829Z,12.40
2019-02-22T05:18:31.858Z,12.40
2019-02-22T05:19:32.881Z,12.40
2019-02-22T05:20:33.896Z,12.40
2019-02-22T05:21:34.931Z,12.40
2019-02-22T05:22:35.983Z,12.50
2019-02-22T05:23:37.074Z,12.40
2019-02-22T05:24:38.132Z,12.40
2019-02-22T05:25:39.172Z,12.30
2019-02-22T05:26:40.188Z,12.30
2019-02-22T05:27:41.206Z,12.30
2019-02-22T05:28:42.236Z,12.20
2019-02-22T05:29:43.259Z,12.20
2019-02-22T05:30:44.373Z,12.20
2019-02-22T05:31:45.393Z,12.10
2019-02-22T05:32:46.418Z,12.10
2019-02-22T05:33:47.444Z,12.10
2019-02-22T05:34:48.474Z,12.10
2019-02-22T05:35:49.558Z,12.10
2019-02-22T05:36:50.585Z,12.00
2019-02-22T05:37:51.597Z,12.00
2019-02-22T05:38:52.661Z,12.00
2019-02-22T05:39:53.683Z,12.10
2019-02-22T05:40:54.709Z,12.10
2019-02-22T05:41:55.765Z,12.10
2019-02-22T05:42:56.771Z,12.10
2019-02-22T05:43:57.819Z,12.10
2019-02-22T05:44:58.841Z,12.10
2019-02-22T05:45:59.868Z,12.10
2019-02-22T05:47:00.911Z,12.10
2019-02-22T05:48:02.011Z,12.10
2019-02-22T05:49:03.058Z,12.10
2019-02-22T05:50:04.480Z,12.10
2019-02-22T05:51:05.494Z,12.10
2019-02-22T05:52:06.520Z,12.10
2019-02-22T05:53:07.545Z,12.10
2019-02-22T05:54:08.602Z,12.10
2019-02-22T05:55:09.639Z,12.00
2019-02-22T05:56:10.645Z,12.00
2019-02-22T05:57:14.181Z,12.00
2019-02-22T05:58:14.677Z,12.00
2019-02-22T05:59:15.748Z,12.00
2019-02-22T06:00:17.636Z,11.90
2019-02-22T06:01:18.674Z,11.90
2019-02-22T06:02:19.772Z,11.90
2019-02-22T06:03:20.816Z,11.90
2019-02-22T06:04:21.832Z,11.90
2019-02-22T06:05:22.841Z,11.90
2019-02-22T06:06:23.860Z,11.90
2019-02-22T06:07:24.880Z,11.80
2019-02-22T06:08:25.902Z,11.90
2019-02-22T06:09:26.919Z,11.80
2019-02-22T06:10:27.928Z,11.80
2019-02-22T06:11:28.964Z,11.80
2019-02-22T06:12:34.558Z,11.70
2019-02-22T06:13:32.916Z,11.70
2019-02-22T06:14:33.925Z,11.80
2019-02-22T06:15:34.972Z,11.80
2019-02-22T06:16:37.904Z,11.80
2019-02-22T06:17:38.917Z,11.80
2019-02-22T06:18:39.973Z,11.80
2019-02-22T06:19:41.009Z,11.80
2019-02-22T06:20:42.053Z,11.80
2019-02-22T06:21:43.136Z,11.80
2019-02-22T06:22:44.136Z,11.80
2019-02-22T06:23:45.165Z,11.80
2019-02-22T06:24:46.209Z,11.90
2019-02-22T06:25:47.230Z,11.90
2019-02-22T06:26:48.294Z,11.90
2019-02-22T06:27:49.345Z,11.90
2019-02-22T06:28:50.376Z,11.90
2019-02-22T06:29:51.471Z,12.00
2019-02-22T06:30:52.477Z,11.90
2019-02-22T06:31:53.655Z,12.00
2019-02-22T06:32:54.649Z,12.00
2019-02-22T06:33:55.680Z,12.00
2019-02-22T06:34:56.708Z,12.00
2019-02-22T06:36:01.216Z,12.00
2019-02-22T06:37:02.604Z,12.00
2019-02-22T06:38:03.862Z,12.10
2019-02-22T06:39:04.927Z,12.10
2019-02-22T06:40:07.682Z,12.00
2019-02-22T06:41:08.798Z,12.00
2019-02-22T06:42:09.825Z,12.00
2019-02-22T06:43:10.844Z,12.00
2019-02-22T06:44:12.035Z,12.00
2019-02-22T06:45:13.195Z,12.00
2019-02-22T06:46:14.216Z,12.00
2019-02-22T06:47:15.265Z,12.00
2019-02-22T06:48:16.313Z,12.00
2019-02-22T06:49:17.410Z,12.00
2019-02-22T06:50:18.429Z,12.00
2019-02-22T06:51:19.444Z,12.00
2019-02-22T06:52:20.476Z,12.00
2019-02-22T06:53:21.548Z,12.00
2019-02-22T06:54:22.580Z,12.00
2019-02-22T06:55:23.608Z,12.00
2019-02-22T06:56:24.628Z,11.90
2019-02-22T06:57:25.665Z,11.90
2019-02-22T06:58:26.686Z,11.90
2019-02-22T06:59:27.722Z,11.90
2019-02-22T07:00:28.743Z,11.90
2019-02-22T07:01:29.770Z,11.90
2019-02-22T07:02:30.785Z,11.90
2019-02-22T07:03:31.823Z,12.00
2019-02-22T07:04:32.875Z,11.90
2019-02-22T07:05:33.880Z,12.00
2019-02-22T07:06:34.902Z,12.00
2019-02-22T07:07:35.920Z,12.00
2019-02-22T07:08:36.964Z,12.00
2019-02-22T07:09:38.021Z,11.90
2019-02-22T07:10:53.006Z,11.90
2019-02-22T07:11:55.961Z,11.90
2019-02-22T07:12:59.068Z,11.90
2019-02-22T07:14:00.080Z,11.90
2019-02-22T07:15:01.112Z,11.90
2019-02-22T07:16:02.137Z,11.90
2019-02-22T07:17:03.154Z,11.90
2019-02-22T07:18:04.164Z,11.90
2019-02-22T07:19:05.196Z,11.90
2019-02-22T07:20:08.428Z,11.90
2019-02-22T07:21:09.450Z,12.00
2019-02-22T07:22:10.460Z,12.00
2019-02-22T07:23:11.574Z,12.00
2019-02-22T07:24:12.696Z,12.00
2019-02-22T07:25:13.814Z,12.00
2019-02-22T07:26:14.826Z,12.00
2019-02-22T07:27:15.856Z,12.00
2019-02-22T07:28:16.880Z,12.00
2019-02-22T07:29:17.912Z,12.00
2019-02-22T07:30:18.937Z,12.00
2019-02-22T07:31:19.951Z,12.00
2019-02-22T07:32:20.973Z,12.00
2019-02-22T07:33:21.993Z,12.00
2019-02-22T07:34:23.008Z,12.00
2019-02-22T07:35:24.037Z,12.10
2019-02-22T07:36:25.059Z,12.10
2019-02-22T07:37:26.083Z,12.10
2019-02-22T07:38:27.116Z,12.10
2019-02-22T07:39:28.384Z,12.10
2019-02-22T07:40:29.529Z,12.10
2019-02-22T07:41:30.581Z,12.10
2019-02-22T07:42:31.612Z,12.10
2019-02-22T07:43:32.627Z,12.10
2019-02-22T07:44:33.643Z,12.10
2019-02-22T07:45:34.672Z,12.20
2019-02-22T07:46:36.003Z,12.20
2019-02-22T07:47:37.032Z,12.20
2019-02-22T07:48:38.064Z,12.20
2019-02-22T07:49:39.087Z,12.30
2019-02-22T07:50:40.109Z,12.30
2019-02-22T07:51:41.143Z,12.20
2019-02-22T07:52:44.571Z,12.20
2019-02-22T07:53:45.140Z,12.30
2019-02-22T07:54:46.152Z,12.20
2019-02-22T07:55:47.188Z,12.20
2019-02-22T07:56:48.214Z,12.20
2019-02-22T07:57:49.403Z,12.10
2019-02-22T07:58:50.418Z,12.10
2019-02-22T07:59:51.465Z,12.10
2019-02-22T08:00:52.531Z,12.20
2019-02-22T08:01:53.551Z,12.10
2019-02-22T08:02:54.592Z,12.10
2019-02-22T08:03:55.617Z,12.20
2019-02-22T08:04:56.630Z,12.10
2019-02-22T08:05:57.759Z,12.10
2019-02-22T08:06:58.784Z,12.10
2019-02-22T08:07:59.801Z,12.10
2019-02-22T08:09:00.858Z,12.10
2019-02-22T08:10:02.997Z,12.10
2019-02-22T08:11:04.457Z,12.10
2019-02-22T08:12:05.917Z,12.10
2019-02-22T08:13:07.005Z,12.10
2019-02-22T08:14:08.110Z,12.20
2019-02-22T08:15:09.281Z,12.20
2019-02-22T08:16:10.362Z,12.20
2019-02-22T08:17:11.414Z,12.20
2019-02-22T08:18:12.449Z,12.20
2019-02-22T08:19:13.461Z,12.20
2019-02-22T08:20:14.484Z,12.20
2019-02-22T08:21:15.517Z,12.30
2019-02-22T08:22:16.580Z,12.30
2019-02-22T08:23:17.608Z,12.30
2019-02-22T08:24:18.632Z,12.30
2019-02-22T08:25:19.661Z,12.40
2019-02-22T08:26:20.728Z,12.40
2019-02-22T08:27:21.760Z,12.40
2019-02-22T08:28:22.792Z,12.40
2019-02-22T08:29:23.827Z,12.40
2019-02-22T08:30:24.839Z,12.30
2019-02-22T08:31:25.864Z,12.50
2019-02-22T08:32:28.256Z,12.50
2019-02-22T08:33:29.275Z,12.50
2019-02-22T08:34:30.325Z,12.60
2019-02-22T08:35:31.407Z,12.60
2019-02-22T08:36:32.446Z,12.60
2019-02-22T08:37:33.472Z,12.70
2019-02-22T08:38:34.489Z,12.70
2019-02-22T08:39:35.533Z,12.80
2019-02-22T08:40:36.540Z,12.80
2019-02-22T08:41:37.576Z,12.80
2019-02-22T08:42:38.608Z,12.80
2019-02-22T08:43:39.623Z,12.80
2019-02-22T08:44:40.664Z,12.80
2019-02-22T08:45:41.688Z,12.90
2019-02-22T08:46:42.709Z,12.90
2019-02-22T08:47:43.828Z,12.90
2019-02-22T08:48:44.890Z,12.90
2019-02-22T08:49:45.918Z,13.00
2019-02-22T08:50:47.016Z,13.00
2019-02-22T08:51:48.053Z,13.00
2019-02-22T08:52:49.068Z,13.10
2019-02-22T08:53:50.096Z,13.10
2019-02-22T08:54:51.411Z,13.10
2019-02-22T08:55:52.494Z,13.10
2019-02-22T08:56:53.564Z,13.10
2019-02-22T08:57:54.668Z,13.20
2019-02-22T08:58:55.709Z,13.20
2019-02-22T08:59:56.722Z,13.20
2019-02-22T09:00:57.749Z,13.20
2019-02-22T09:01:58.780Z,13.20
2019-02-22T09:02:59.813Z,13.30
2019-02-22T09:04:00.840Z,13.30
2019-02-22T09:05:02.059Z,13.30
2019-02-22T09:06:03.076Z,13.30
2019-02-22T09:07:04.394Z,13.30
2019-02-22T09:08:05.409Z,13.30
2019-02-22T09:09:06.557Z,13.40
2019-02-22T09:10:10.864Z,13.40
2019-02-22T09:11:11.897Z,13.50
2019-02-22T09:12:12.930Z,13.50
2019-02-22T09:13:13.970Z,13.50
2019-02-22T09:14:15.045Z,13.50
2019-02-22T09:15:18.037Z,13.60
2019-02-22T09:16:19.064Z,13.60
2019-02-22T09:17:20.081Z,13.60
2019-02-22T09:18:21.097Z,13.60
2019-02-22T09:19:22.123Z,13.60
2019-02-22T09:20:23.241Z,13.60
2019-02-22T09:21:24.257Z,13.60
2019-02-22T09:22:25.280Z,13.60
2019-02-22T09:23:26.306Z,13.60
2019-02-22T09:24:27.317Z,13.60
2019-02-22T09:25:28.356Z,13.60
2019-02-22T09:26:29.369Z,13.60
2019-02-22T09:27:30.432Z,13.60
2019-02-22T09:28:31.541Z,13.50
2019-02-22T09:29:32.564Z,13.50
2019-02-22T09:30:33.592Z,13.50
2019-02-22T09:31:34.619Z,13.50
2019-02-22T09:32:35.630Z,13.50
2019-02-22T09:33:36.636Z,13.40
2019-02-22T09:34:37.684Z,13.40
2019-02-22T09:35:39.230Z,13.40
2019-02-22T09:36:40.520Z,13.40
2019-02-22T09:37:41.543Z,13.40
2019-02-22T09:38:42.580Z,13.50
2019-02-22T09:39:43.601Z,13.50
2019-02-22T09:40:44.617Z,13.50
2019-02-22T09:41:45.653Z,13.50
2019-02-22T09:42:46.665Z,13.50
2019-02-22T09:43:55.479Z,13.50
2019-02-22T09:44:50.597Z,13.50
2019-02-22T09:45:51.608Z,13.60
2019-02-22T09:46:52.632Z,13.60
2019-02-22T09:47:53.652Z,13.60
2019-02-22T09:48:54.673Z,13.60
2019-02-22T09:49:55.688Z,13.60
2019-02-22T09:50:56.808Z,13.60
2019-02-22T09:51:57.905Z,13.70
2019-02-22T09:52:58.915Z,13.80
2019-02-22T09:53:59.951Z,13.80
2019-02-22T09:55:00.968Z,13.80
2019-02-22T09:56:01.990Z,13.90
2019-02-22T09:57:03.417Z,13.90
2019-02-22T09:58:04.427Z,13.90
2019-02-22T09:59:05.432Z,13.90
2019-02-22T10:00:09.271Z,13.90
2019-02-22T10:01:10.349Z,13.80
2019-02-22T10:02:11.371Z,13.80
2019-02-22T10:03:12.388Z,13.90
2019-02-22T10:04:13.432Z,13.90
2019-02-22T10:05:14.694Z,13.90
2019-02-22T10:06:15.753Z,14.00
2019-02-22T10:07:16.879Z,14.00
2019-02-22T10:08:17.893Z,14.00
2019-02-22T10:09:18.929Z,14.00
2019-02-22T10:10:20.052Z,14.00
2019-02-22T10:11:21.080Z,14.00
2019-02-22T10:12:22.121Z,14.00
2019-02-22T10:13:23.142Z,14.10
2019-02-22T10:14:24.161Z,14.10
2019-02-22T10:15:25.311Z,14.10
2019-02-22T10:16:27.617Z,14.10
2019-02-22T10:17:28.865Z,14.20
2019-02-22T10:18:29.881Z,14.20
2019-02-22T10:19:30.917Z,14.20
2019-02-22T10:20:31.924Z,14.20
2019-02-22T10:21:32.984Z,14.30
2019-02-22T10:22:34.010Z,14.30
2019-02-22T10:23:35.034Z,14.30
2019-02-22T10:24:36.047Z,14.40
2019-02-22T10:25:37.056Z,14.40
2019-02-22T10:26:38.068Z,14.40
2019-02-22T10:27:39.106Z,14.40
2019-02-22T10:28:40.136Z,14.40
2019-02-22T10:29:41.152Z,14.50
2019-02-22T10:30:43.028Z,14.50
2019-02-22T10:31:44.049Z,14.50
2019-02-22T10:32:45.090Z,14.50
2019-02-22T10:33:46.103Z,14.50
2019-02-22T10:34:47.135Z,14.60
2019-02-22T10:35:48.156Z,14.60
2019-02-22T10:36:49.186Z,14.60
2019-02-22T10:37:50.240Z,14.60
2019-02-22T10:38:51.269Z,14.60
2019-02-22T10:39:52.281Z,14.60
2019-02-22T10:40:53.305Z,14.70
2019-02-22T10:41:54.320Z,14.60
2019-02-22T10:42:55.357Z,14.60
2019-02-22T10:43:56.387Z,14.60
2019-02-22T10:44:57.405Z,14.60
2019-02-22T10:45:58.417Z,14.60
2019-02-22T10:46:59.500Z,14.70
2019-02-22T10:48:00.521Z,14.60
2019-02-22T10:49:01.565Z,14.60
2019-02-22T10:50:03.078Z,14.60
2019-02-22T10:51:04.207Z,14.60
2019-02-22T10:52:05.216Z,14.60
2019-02-22T10:53:06.315Z,14.70
2019-02-22T10:54:07.371Z,14.60
2019-02-22T10:55:10.588Z,14.60
2019-02-22T10:56:11.597Z,14.60
2019-02-22T10:57:12.815Z,14.60
2019-02-22T10:58:13.939Z,14.60
2019-02-22T10:59:14.952Z,14.60
2019-02-22T11:00:15.971Z,14.60
2019-02-22T11:01:16.988Z,14.60
2019-02-22T11:02:18.017Z,14.60
2019-02-22T11:03:19.048Z,14.60
2019-02-22T11:04:20.069Z,14.60
2019-02-22T11:05:21.089Z,14.60
2019-02-22T11:06:22.108Z,14.60
2019-02-22T11:07:23.274Z,14.60
2019-02-22T11:08:24.468Z,14.60
2019-02-22T11:09:25.538Z,14.60
2019-02-22T11:10:26.545Z,14.60
2019-02-22T11:11:27.573Z,14.50
2019-02-22T11:12:28.576Z,14.50
2019-02-22T11:13:29.600Z,14.50
2019-02-22T11:14:30.612Z,14.50
2019-02-22T11:15:31.643Z,14.60
2019-02-22T11:16:32.662Z,14.50
2019-02-22T11:17:33.682Z,14.50
2019-02-22T11:18:34.708Z,14.50
2019-02-22T11:19:35.725Z,14.50
2019-02-22T11:20:36.750Z,14.50
2019-02-22T11:21:37.757Z,14.50
2019-02-22T11:22:38.872Z,14.50
2019-02-22T11:23:39.907Z,14.50
2019-02-22T11:24:40.975Z,14.50
2019-02-22T11:25:42.086Z,14.50
2019-02-22T11:26:43.092Z,14.50
2019-02-22T11:27:44.114Z,14.50
2019-02-22T11:28:45.147Z,14.50
2019-02-22T11:29:48.163Z,14.50
2019-02-22T11:30:49.096Z,14.40
2019-02-22T11:31:50.108Z,14.40
2019-02-22T11:32:51.158Z,14.40
2019-02-22T11:33:52.254Z,14.40
2019-02-22T11:34:53.271Z,14.40
2019-02-22T11:35:54.284Z,14.50
2019-02-22T11:36:55.300Z,14.50
2019-02-22T11:37:56.424Z,14.50
2019-02-22T11:38:57.546Z,14.60
2019-02-22T11:39:58.577Z,14.60
2019-02-22T11:40:59.627Z,14.60
2019-02-22T11:42:00.954Z,14.70
2019-02-22T11:43:01.969Z,14.80
2019-02-22T11:44:02.996Z,14.80
2019-02-22T11:45:05.513Z,14.90
2019-02-22T11:46:06.565Z,14.90
2019-02-22T11:47:07.582Z,14.90
2019-02-22T11:48:09.530Z,14.90
2019-02-22T11:49:10.756Z,15.00
2019-02-22T11:50:11.869Z,14.90
2019-02-22T11:51:12.893Z,15.00
2019-02-22T11:52:13.892Z,15.00
2019-02-22T11:53:14.935Z,15.00
2019-02-22T11:54:16.146Z,15.00
2019-02-22T11:55:17.151Z,15.10
2019-02-22T11:56:18.285Z,15.00
2019-02-22T11:57:19.687Z,15.00
2019-02-22T11:58:20.820Z,15.00
2019-02-22T11:59:21.864Z,15.00
2019-02-22T12:00:23.497Z,15.00
2019-02-22T12:01:24.511Z,15.00
2019-02-22T12:02:25.532Z,15.00
2019-02-22T12:03:26.562Z,15.00
2019-02-22T12:04:27.589Z,15.00
2019-02-22T12:05:28.615Z,15.00
2019-02-22T12:06:29.663Z,15.00
2019-02-22T12:07:30.676Z,15.00
2019-02-22T12:08:31.691Z,15.00
2019-02-22T12:09:32.720Z,15.00
2019-02-22T12:10:33.853Z,15.00
2019-02-22T12:11:34.866Z,15.00
2019-02-22T12:12:35.884Z,15.00
2019-02-22T12:13:37.024Z,15.00
2019-02-22T12:14:38.142Z,15.00
2019-02-22T12:15:39.166Z,15.00
2019-02-22T12:16:40.213Z,15.00
2019-02-22T12:17:41.243Z,15.00
2019-02-22T12:18:42.296Z,15.00
2019-02-22T12:19:43.392Z,15.00
2019-02-22T12:20:44.418Z,15.00
2019-02-22T12:21:45.428Z,15.00
2019-02-22T12:22:46.464Z,15.10
2019-02-22T12:23:47.485Z,15.00
2019-02-22T12:24:48.507Z,15.10
2019-02-22T12:25:49.844Z,15.00
2019-02-22T12:26:50.908Z,15.10
2019-02-22T12:27:51.996Z,15.10
2019-02-22T12:28:53.004Z,15.10
2019-02-22T12:29:54.032Z,15.10
2019-02-22T12:30:55.056Z,15.10
2019-02-22T12:31:56.540Z,15.10
2019-02-22T12:32:57.666Z,15.10
2019-02-22T12:33:58.688Z,15.10
2019-02-22T12:34:59.704Z,15.10
2019-02-22T12:36:00.721Z,15.10
2019-02-22T12:37:01.754Z,15.10
2019-02-22T12:38:02.768Z,15.10
2019-02-22T12:39:04.703Z,15.10
2019-02-22T12:40:09.540Z,15.10
2019-02-22T12:41:10.553Z,15.10
2019-02-22T12:42:11.568Z,15.10
2019-02-22T12:43:12.640Z,15.10
2019-02-22T12:44:14.040Z,15.00
2019-02-22T12:45:15.063Z,15.00
2019-02-22T12:46:16.098Z,15.00
2019-02-22T12:47:17.105Z,15.00
2019-02-22T12:48:18.264Z,15.10
2019-02-22T12:49:19.290Z,15.00
2019-02-22T12:50:20.360Z,15.00
2019-02-22T12:51:21.368Z,15.00
2019-02-22T12:52:22.505Z,15.00
2019-02-22T12:53:23.529Z,15.00
2019-02-22T12:54:24.552Z,15.00
2019-02-22T12:55:25.613Z,15.00
2019-02-22T12:56:55.840Z,15.00
2019-02-22T12:57:29.569Z,15.00
2019-02-22T12:58:30.593Z,15.00
2019-02-22T12:59:31.854Z,15.00
2019-02-22T13:00:32.873Z,15.00
2019-02-22T13:01:33.961Z,15.00
2019-02-22T13:02:35.140Z,15.00
2019-02-22T13:03:36.298Z,15.00
2019-02-22T13:04:37.324Z,15.00
2019-02-22T13:05:38.331Z,15.00
2019-02-22T13:06:39.342Z,15.00
2019-02-22T13:07:40.368Z,15.00